createdAt,value
2023-12-15T00:00:21.544Z,1020.29
2023-12-15T00:01:21.573Z,1020.30
2023-12-15T00:02:21.532Z,1020.33
2023-12-15T00:03:21.767Z,1020.34
2023-12-15T00:04:22.547Z,1020.33
2023-12-15T00:05:21.502Z,1020.36
2023-12-15T00:06:21.516Z,1020.32
2023-12-15T00:07:23.075Z,1020.31
2023-12-15T00:08:21.529Z,1020.32
2023-12-15T00:09:21.447Z,1020.38
2023-12-15T00:10:21.396Z,1020.37
2023-12-15T00:11:21.454Z,1020.37
2023-12-15T00:12:21.378Z,1020.38
2023-12-15T00:13:22.344Z,1020.37
2023-12-15T00:14:22.311Z,1020.42
2023-12-15T00:15:21.399Z,1020.44
2023-12-15T00:16:21.430Z,1020.39
2023-12-15T00:17:21.374Z,1020.42
2023-12-15T00:18:22.455Z,1020.46
2023-12-15T00:19:21.526Z,1020.41
2023-12-15T00:20:23.582Z,1020.40
2023-12-15T00:21:21.943Z,1020.42
2023-12-15T00:22:21.305Z,1020.42
2023-12-15T00:23:21.296Z,1020.46
2023-12-15T00:24:22.211Z,1020.48
2023-12-15T00:25:21.290Z,1020.44
2023-12-15T00:26:21.297Z,1020.47
2023-12-15T00:27:21.258Z,1020.46
2023-12-15T00:28:21.200Z,1020.45
2023-12-15T00:29:21.284Z,1020.48
2023-12-15T00:30:21.266Z,1020.47
2023-12-15T00:31:21.125Z,1020.46
2023-12-15T00:32:21.265Z,1020.46
2023-12-15T00:33:21.234Z,1020.42
2023-12-15T00:34:21.166Z,1020.45
2023-12-15T00:35:21.292Z,1020.48
2023-12-15T00:36:21.086Z,1020.42
2023-12-15T00:37:21.120Z,1020.47
2023-12-15T00:38:21.099Z,1020.49
2023-12-15T00:39:21.043Z,1020.50
2023-12-15T00:40:21.093Z,1020.49
2023-12-15T00:41:21.852Z,1020.50
2023-12-15T00:42:21.048Z,1020.47
2023-12-15T00:43:21.068Z,1020.49
2023-12-15T00:44:20.968Z,1020.52
2023-12-15T00:45:20.995Z,1020.52
2023-12-15T00:46:20.998Z,1020.54
2023-12-15T00:47:21.020Z,1020.62
2023-12-15T00:48:20.961Z,1020.65
2023-12-15T00:49:20.952Z,1020.62
2023-12-15T00:50:20.926Z,1020.63
2023-12-15T00:51:22.543Z,1020.65
2023-12-15T00:52:20.884Z,1020.66
2023-12-15T00:53:21.873Z,1020.70
2023-12-15T00:54:20.886Z,1020.72
2023-12-15T00:55:20.827Z,1020.74
2023-12-15T00:56:20.869Z,1020.73
2023-12-15T00:57:20.800Z,1020.76
2023-12-15T00:58:20.802Z,1020.77
2023-12-15T00:59:20.833Z,1020.80
2023-12-15T01:00:20.892Z,1020.81
2023-12-15T01:01:20.834Z,1020.80
2023-12-15T01:02:20.804Z,1020.82
2023-12-15T01:03:20.833Z,1020.83
2023-12-15T01:04:21.679Z,1020.87
2023-12-15T01:05:20.813Z,1020.89
2023-12-15T01:06:22.286Z,1020.86
2023-12-15T01:07:21.627Z,1020.86
2023-12-15T01:08:20.721Z,1020.88
2023-12-15T01:09:20.734Z,1020.88
2023-12-15T01:10:20.733Z,1020.91
2023-12-15T01:11:20.786Z,1020.94
2023-12-15T01:12:20.680Z,1020.93
2023-12-15T01:13:22.224Z,1020.99
2023-12-15T01:14:21.517Z,1021.00
2023-12-15T01:15:20.649Z,1021.01
2023-12-15T01:16:21.484Z,1020.97
2023-12-15T01:17:20.609Z,1020.99
2023-12-15T01:18:20.610Z,1021.10
2023-12-15T01:19:21.542Z,1021.05
2023-12-15T01:20:20.588Z,1021.07
2023-12-15T01:21:20.503Z,1021.05
2023-12-15T01:22:20.505Z,1021.06
2023-12-15T01:23:20.550Z,1021.10
2023-12-15T01:24:20.501Z,1021.11
2023-12-15T01:25:21.208Z,1021.13
2023-12-15T01:26:20.562Z,1021.11
2023-12-15T01:27:20.544Z,1021.09
2023-12-15T01:28:20.408Z,1021.09
2023-12-15T01:29:20.498Z,1021.11
2023-12-15T01:30:21.067Z,1021.11
2023-12-15T01:31:20.360Z,1021.10
2023-12-15T01:32:20.493Z,1021.12
2023-12-15T01:33:21.244Z,1021.12
2023-12-15T01:34:21.513Z,1021.14
2023-12-15T01:35:21.160Z,1021.18
2023-12-15T01:36:20.335Z,1021.18
2023-12-15T01:37:20.317Z,1021.16
2023-12-15T01:38:21.345Z,1021.20
2023-12-15T01:39:20.381Z,1021.13
2023-12-15T01:40:20.330Z,1021.22
2023-12-15T01:41:20.289Z,1021.17
2023-12-15T01:42:20.282Z,1021.15
2023-12-15T01:43:20.346Z,1021.16
2023-12-15T01:44:20.268Z,1021.17
2023-12-15T01:45:21.140Z,1021.16
2023-12-15T01:46:20.170Z,1021.15
2023-12-15T01:47:20.230Z,1021.21
2023-12-15T01:48:20.941Z,1021.22
2023-12-15T01:49:20.253Z,1021.18
2023-12-15T01:50:21.075Z,1021.20
2023-12-15T01:51:20.185Z,1021.20
2023-12-15T01:52:20.092Z,1021.20
2023-12-15T01:53:20.134Z,1021.19
2023-12-15T01:54:20.106Z,1021.25
2023-12-15T01:55:20.053Z,1021.22
2023-12-15T01:56:20.094Z,1021.21
2023-12-15T01:57:20.085Z,1021.24
2023-12-15T01:58:20.089Z,1021.26
2023-12-15T01:59:20.099Z,1021.29
2023-12-15T02:00:20.935Z,1021.31
2023-12-15T02:01:20.162Z,1021.29
2023-12-15T02:02:20.813Z,1021.33
2023-12-15T02:03:20.051Z,1021.34
2023-12-15T02:04:19.981Z,1021.36
2023-12-15T02:05:20.104Z,1021.35
2023-12-15T02:06:20.173Z,1021.32
2023-12-15T02:07:19.939Z,1021.32
2023-12-15T02:08:20.055Z,1021.35
2023-12-15T02:09:19.879Z,1021.28
2023-12-15T02:10:19.977Z,1021.32
2023-12-15T02:11:19.910Z,1021.34
2023-12-15T02:12:19.916Z,1021.35
2023-12-15T02:13:19.909Z,1021.35
2023-12-15T02:14:19.876Z,1021.35
2023-12-15T02:15:20.788Z,1021.36
2023-12-15T02:16:19.839Z,1021.30
2023-12-15T02:17:19.956Z,1021.36
2023-12-15T02:18:19.886Z,1021.33
2023-12-15T02:19:19.874Z,1021.36
2023-12-15T02:20:20.689Z,1021.40
2023-12-15T02:21:19.771Z,1021.38
2023-12-15T02:22:19.845Z,1021.33
2023-12-15T02:23:19.768Z,1021.31
2023-12-15T02:24:19.722Z,1021.37
2023-12-15T02:25:20.422Z,1021.36
2023-12-15T02:26:19.706Z,1021.39
2023-12-15T02:27:20.572Z,1021.38
2023-12-15T02:28:19.696Z,1021.38
2023-12-15T02:29:19.738Z,1021.37
2023-12-15T02:30:19.707Z,1021.34
2023-12-15T02:31:19.683Z,1021.35
2023-12-15T02:32:19.697Z,1021.35
2023-12-15T02:33:19.863Z,1021.33
2023-12-15T02:34:21.170Z,1021.36
2023-12-15T02:35:19.620Z,1021.34
2023-12-15T02:36:19.521Z,1021.37
2023-12-15T02:37:19.575Z,1021.38
2023-12-15T02:38:19.683Z,1021.40
2023-12-15T02:39:20.451Z,1021.42
2023-12-15T02:40:20.525Z,1021.37
2023-12-15T02:41:20.429Z,1021.34
2023-12-15T02:42:19.520Z,1021.33
2023-12-15T02:43:19.468Z,1021.33
2023-12-15T02:44:19.503Z,1021.29
2023-12-15T02:45:19.475Z,1021.30
2023-12-15T02:46:19.414Z,1021.31
2023-12-15T02:47:19.479Z,1021.34
2023-12-15T02:48:19.483Z,1021.40
2023-12-15T02:49:19.536Z,1021.35
2023-12-15T02:50:19.499Z,1021.38
2023-12-15T02:51:19.483Z,1021.38
2023-12-15T02:52:19.348Z,1021.43
2023-12-15T02:53:19.533Z,1021.41
2023-12-15T02:54:19.360Z,1021.43
2023-12-15T02:55:20.226Z,1021.43
2023-12-15T02:56:19.338Z,1021.46
2023-12-15T02:57:20.290Z,1021.46
2023-12-15T02:58:19.933Z,1021.40
2023-12-15T02:59:21.185Z,1021.43
2023-12-15T03:00:20.196Z,1021.41
2023-12-15T03:01:20.182Z,1021.47
2023-12-15T03:02:19.412Z,1021.45
2023-12-15T03:03:19.277Z,1021.45
2023-12-15T03:04:19.837Z,1021.47
2023-12-15T03:05:19.271Z,1021.45
2023-12-15T03:06:19.347Z,1021.41
2023-12-15T03:07:19.238Z,1021.42
2023-12-15T03:08:20.143Z,1021.43
2023-12-15T03:09:19.268Z,1021.35
2023-12-15T03:10:19.959Z,1021.40
2023-12-15T03:11:19.116Z,1021.45
2023-12-15T03:12:19.076Z,1021.45
2023-12-15T03:13:19.066Z,1021.49
2023-12-15T03:14:19.413Z,1021.53
2023-12-15T03:15:19.104Z,1021.53
2023-12-15T03:16:19.048Z,1021.54
2023-12-15T03:17:19.115Z,1021.52
2023-12-15T03:18:19.011Z,1021.58
2023-12-15T03:19:19.082Z,1021.57
2023-12-15T03:20:19.917Z,1021.56
2023-12-15T03:21:19.604Z,1021.66
2023-12-15T03:22:19.844Z,1021.60
2023-12-15T03:23:19.028Z,1021.69
2023-12-15T03:24:18.973Z,1021.66
2023-12-15T03:25:19.042Z,1021.66
2023-12-15T03:26:18.942Z,1021.67
2023-12-15T03:27:18.971Z,1021.60
2023-12-15T03:28:18.901Z,1021.61
2023-12-15T03:29:18.984Z,1021.68
2023-12-15T03:30:18.932Z,1021.68
2023-12-15T03:31:18.959Z,1021.65
2023-12-15T03:32:19.806Z,1021.68
2023-12-15T03:33:18.906Z,1021.68
2023-12-15T03:34:18.801Z,1021.66
2023-12-15T03:35:18.817Z,1021.71
2023-12-15T03:36:18.849Z,1021.72
2023-12-15T03:37:18.818Z,1021.71
2023-12-15T03:38:19.524Z,1021.70
2023-12-15T03:39:18.802Z,1021.69
2023-12-15T03:40:18.726Z,1021.68
2023-12-15T03:41:18.850Z,1021.68
2023-12-15T03:42:18.793Z,1021.68
2023-12-15T03:43:18.732Z,1021.71
2023-12-15T03:44:18.772Z,1021.71
2023-12-15T03:45:18.659Z,1021.68
2023-12-15T03:46:18.643Z,1021.70
2023-12-15T03:47:18.693Z,1021.67
2023-12-15T03:48:19.625Z,1021.65
2023-12-15T03:49:19.435Z,1021.74
2023-12-15T03:50:19.700Z,1021.69
2023-12-15T03:51:19.215Z,1021.71
2023-12-15T03:52:18.647Z,1021.71
2023-12-15T03:53:18.688Z,1021.73
2023-12-15T03:54:19.296Z,1021.72
2023-12-15T03:55:19.486Z,1021.70
2023-12-15T03:56:18.578Z,1021.76
2023-12-15T03:57:18.546Z,1021.76
2023-12-15T03:58:18.525Z,1021.80
2023-12-15T03:59:19.515Z,1021.83
2023-12-15T04:00:18.476Z,1021.82
2023-12-15T04:01:19.469Z,1021.79
2023-12-15T04:02:19.583Z,1021.84
2023-12-15T04:03:18.553Z,1021.85
2023-12-15T04:04:20.342Z,1021.86
2023-12-15T04:17:18.828Z,1021.95
2023-12-15T04:18:19.038Z,1021.93
2023-12-15T04:19:18.887Z,1021.96
2023-12-15T04:20:18.940Z,1021.93
2023-12-15T04:21:18.755Z,1021.96
2023-12-15T04:22:18.748Z,1021.91
2023-12-15T04:23:19.721Z,1021.91
2023-12-15T04:24:18.673Z,1021.87
2023-12-15T04:25:18.702Z,1021.87
2023-12-15T04:26:18.667Z,1021.89
2023-12-15T04:27:18.703Z,1021.87
2023-12-15T04:28:18.611Z,1021.87
2023-12-15T04:29:18.623Z,1021.86
2023-12-15T04:30:18.648Z,1021.88
2023-12-15T04:31:18.615Z,1021.90
2023-12-15T04:32:18.640Z,1021.94
2023-12-15T04:33:18.686Z,1021.93
2023-12-15T04:34:18.541Z,1021.93
2023-12-15T04:35:18.571Z,1021.92
2023-12-15T04:36:18.531Z,1021.91
2023-12-15T04:37:18.522Z,1021.97
2023-12-15T04:38:18.604Z,1021.96
2023-12-15T04:39:18.483Z,1021.98
2023-12-15T04:40:18.550Z,1021.96
2023-12-15T04:41:18.543Z,1022.00
2023-12-15T04:42:18.438Z,1022.00
2023-12-15T04:43:18.475Z,1022.03
2023-12-15T04:44:18.441Z,1022.04
2023-12-15T04:45:18.397Z,1021.96
2023-12-15T04:46:18.408Z,1021.96
2023-12-15T04:47:18.392Z,1021.94
2023-12-15T04:48:18.447Z,1021.97
2023-12-15T04:49:18.369Z,1021.97
2023-12-15T04:50:18.359Z,1021.94
2023-12-15T04:51:18.432Z,1021.98
2023-12-15T04:52:18.405Z,1021.98
2023-12-15T04:53:18.405Z,1022.02
2023-12-15T04:54:18.294Z,1022.02
2023-12-15T04:55:18.315Z,1022.05
2023-12-15T04:56:18.323Z,1022.08
2023-12-15T04:57:18.269Z,1022.06
2023-12-15T04:58:18.244Z,1022.04
2023-12-15T04:59:18.259Z,1022.09
2023-12-15T05:00:18.228Z,1022.08
2023-12-15T05:01:18.305Z,1022.09
2023-12-15T05:02:18.199Z,1022.11
2023-12-15T05:03:18.207Z,1022.12
2023-12-15T05:04:18.177Z,1022.10
2023-12-15T05:05:18.247Z,1022.11
2023-12-15T05:06:18.218Z,1022.07
2023-12-15T05:07:18.209Z,1022.04
2023-12-15T05:08:18.142Z,1022.08
2023-12-15T05:09:18.095Z,1022.03
2023-12-15T05:10:18.177Z,1022.01
2023-12-15T05:11:18.127Z,1022.04
2023-12-15T05:12:18.048Z,1022.07
2023-12-15T05:13:18.051Z,1022.08
2023-12-15T05:14:18.086Z,1022.07
2023-12-15T05:15:18.010Z,1022.06
2023-12-15T05:16:18.118Z,1022.07
2023-12-15T05:17:18.067Z,1022.05
2023-12-15T05:18:18.289Z,1022.10
2023-12-15T05:19:18.020Z,1022.13
2023-12-15T05:20:18.068Z,1022.05
2023-12-15T05:21:17.947Z,1022.05
2023-12-15T05:22:17.933Z,1022.12
2023-12-15T05:23:17.946Z,1022.11
2023-12-15T05:24:17.895Z,1022.13
2023-12-15T05:25:17.878Z,1022.13
2023-12-15T05:26:18.078Z,1022.16
2023-12-15T05:27:17.970Z,1022.22
2023-12-15T05:28:17.972Z,1022.22
2023-12-15T05:29:17.861Z,1022.32
2023-12-15T05:30:17.868Z,1022.32
2023-12-15T05:31:17.801Z,1022.33
2023-12-15T05:32:17.863Z,1022.38
2023-12-15T05:33:18.032Z,1022.44
2023-12-15T05:34:17.913Z,1022.42
2023-12-15T05:35:17.780Z,1022.46
2023-12-15T05:36:17.775Z,1022.47
2023-12-15T05:37:17.769Z,1022.49
2023-12-15T05:38:17.858Z,1022.50
2023-12-15T05:39:17.761Z,1022.46
2023-12-15T05:40:17.698Z,1022.51
2023-12-15T05:41:17.709Z,1022.54
2023-12-15T05:42:17.677Z,1022.54
2023-12-15T05:43:17.651Z,1022.53
2023-12-15T05:44:17.680Z,1022.56
2023-12-15T05:45:17.780Z,1022.58
2023-12-15T05:46:17.617Z,1022.60
2023-12-15T05:47:17.729Z,1022.58
2023-12-15T05:48:17.877Z,1022.62
2023-12-15T05:49:17.685Z,1022.61
2023-12-15T05:50:17.794Z,1022.65
2023-12-15T05:51:17.545Z,1022.64
2023-12-15T05:52:17.558Z,1022.63
2023-12-15T05:53:17.572Z,1022.61
2023-12-15T05:54:17.522Z,1022.64
2023-12-15T05:55:17.560Z,1022.63
2023-12-15T05:56:17.578Z,1022.63
2023-12-15T05:57:18.701Z,1022.64
2023-12-15T05:58:17.492Z,1022.63
2023-12-15T05:59:17.505Z,1022.64
2023-12-15T06:00:17.442Z,1022.68
2023-12-15T06:01:17.477Z,1022.66
2023-12-15T06:02:17.612Z,1022.68
2023-12-15T06:03:17.484Z,1022.67
2023-12-15T06:04:17.380Z,1022.70
2023-12-15T06:05:17.479Z,1022.72
2023-12-15T06:06:17.539Z,1022.77
2023-12-15T06:07:17.342Z,1022.74
2023-12-15T06:08:17.521Z,1022.79
2023-12-15T06:09:17.373Z,1022.77
2023-12-15T06:10:17.319Z,1022.83
2023-12-15T06:11:17.363Z,1022.80
2023-12-15T06:12:17.273Z,1022.80
2023-12-15T06:13:17.356Z,1022.79
2023-12-15T06:14:17.369Z,1022.77
2023-12-15T06:15:17.869Z,1022.75
2023-12-15T06:16:17.231Z,1022.76
2023-12-15T06:17:17.228Z,1022.72
2023-12-15T06:18:17.341Z,1022.75
2023-12-15T06:19:17.396Z,1022.77
2023-12-15T06:20:17.248Z,1022.75
2023-12-15T06:21:17.236Z,1022.78
2023-12-15T06:22:17.208Z,1022.77
2023-12-15T06:23:17.210Z,1022.74
2023-12-15T06:24:17.165Z,1022.70
2023-12-15T06:25:17.126Z,1022.69
2023-12-15T06:26:17.224Z,1022.70
2023-12-15T06:27:17.217Z,1022.74
2023-12-15T06:28:17.104Z,1022.73
2023-12-15T06:29:17.091Z,1022.74
2023-12-15T06:30:17.496Z,1022.71
2023-12-15T06:31:17.096Z,1022.74
2023-12-15T06:32:17.248Z,1022.76
2023-12-15T06:33:17.072Z,1022.75
2023-12-15T06:34:17.769Z,1022.74
2023-12-15T06:35:17.281Z,1022.73
2023-12-15T06:36:18.283Z,1022.76
2023-12-15T06:37:17.030Z,1022.76
2023-12-15T06:38:16.999Z,1022.74
2023-12-15T06:39:17.022Z,1022.77
2023-12-15T06:40:16.933Z,1022.76
2023-12-15T06:41:16.992Z,1022.77
2023-12-15T06:42:16.889Z,1022.84
2023-12-15T06:43:17.870Z,1022.79
2023-12-15T06:44:16.932Z,1022.80
2023-12-15T06:45:16.880Z,1022.83
2023-12-15T06:46:16.891Z,1022.80
2023-12-15T06:47:16.863Z,1022.81
2023-12-15T06:48:17.057Z,1022.81
2023-12-15T06:49:19.277Z,1022.80
2023-12-15T06:50:16.824Z,1022.84
2023-12-15T06:51:17.619Z,1022.89
2023-12-15T06:52:18.766Z,1022.90
2023-12-15T06:53:16.942Z,1022.91
2023-12-15T06:54:16.879Z,1022.94
2023-12-15T06:55:16.736Z,1022.93
2023-12-15T06:56:16.825Z,1022.90
2023-12-15T06:57:16.793Z,1022.97
2023-12-15T06:58:16.730Z,1022.97
2023-12-15T06:59:16.724Z,1022.97
2023-12-15T07:00:16.685Z,1022.97
2023-12-15T07:01:16.733Z,1023.00
2023-12-15T07:02:16.687Z,1022.98
2023-12-15T07:03:16.799Z,1022.94
2023-12-15T07:04:17.350Z,1023.00
2023-12-15T07:05:16.874Z,1022.96
2023-12-15T07:06:16.647Z,1022.95
2023-12-15T07:07:16.578Z,1023.01
2023-12-15T07:08:16.686Z,1023.05
2023-12-15T07:09:18.830Z,1023.03
2023-12-15T07:10:16.571Z,1023.10
2023-12-15T07:11:16.541Z,1023.09
2023-12-15T07:12:16.503Z,1023.06
2023-12-15T07:13:16.856Z,1023.05
2023-12-15T07:14:16.612Z,1023.08
2023-12-15T07:15:16.483Z,1023.08
2023-12-15T07:16:16.611Z,1023.14
2023-12-15T07:17:16.467Z,1023.12
2023-12-15T07:18:16.853Z,1023.16
2023-12-15T07:19:16.463Z,1023.12
2023-12-15T07:20:16.506Z,1023.19
2023-12-15T07:21:16.583Z,1023.10
2023-12-15T07:22:20.235Z,1023.13
2023-12-15T07:23:16.430Z,1023.14
2023-12-15T07:24:16.510Z,1023.09
2023-12-15T07:25:16.524Z,1023.13
2023-12-15T07:26:16.414Z,1023.10
2023-12-15T07:27:16.365Z,1023.10
2023-12-15T07:28:16.426Z,1023.13
2023-12-15T07:29:16.379Z,1023.17
2023-12-15T07:30:16.382Z,1023.18
2023-12-15T07:31:16.279Z,1023.16
2023-12-15T07:32:16.268Z,1023.18
2023-12-15T07:33:16.300Z,1023.22
2023-12-15T07:34:16.366Z,1023.20
2023-12-15T07:35:24.989Z,1023.22
2023-12-15T07:36:17.284Z,1023.23
2023-12-15T07:37:16.228Z,1023.23
2023-12-15T07:38:16.280Z,1023.23
2023-12-15T07:39:16.198Z,1023.26
2023-12-15T07:40:16.263Z,1023.27
2023-12-15T07:41:16.255Z,1023.26
2023-12-15T07:42:16.184Z,1023.29
2023-12-15T07:43:16.107Z,1023.29
2023-12-15T07:44:16.183Z,1023.32
2023-12-15T07:45:16.117Z,1023.32
2023-12-15T07:46:16.092Z,1023.35
2023-12-15T07:47:16.101Z,1023.34
2023-12-15T07:48:16.297Z,1023.35
2023-12-15T07:49:16.112Z,1023.38
2023-12-15T07:50:16.241Z,1023.38
2023-12-15T07:51:15.995Z,1023.42
2023-12-15T07:52:16.096Z,1023.41
2023-12-15T07:53:16.078Z,1023.44
2023-12-15T07:54:16.009Z,1023.47
2023-12-15T07:55:15.957Z,1023.46
2023-12-15T07:56:16.033Z,1023.42
2023-12-15T07:57:16.949Z,1023.42
2023-12-15T07:58:15.949Z,1023.43
2023-12-15T07:59:17.043Z,1023.40
2023-12-15T08:00:16.118Z,1023.43
2023-12-15T08:01:15.893Z,1023.37
2023-12-15T08:02:15.969Z,1023.36
2023-12-15T08:03:15.905Z,1023.36
2023-12-15T08:04:15.882Z,1023.40
2023-12-15T08:05:16.143Z,1023.43
2023-12-15T08:06:15.940Z,1023.45
2023-12-15T08:07:15.845Z,1023.45
2023-12-15T08:08:16.664Z,1023.48
2023-12-15T08:09:15.777Z,1023.47
2023-12-15T08:10:15.773Z,1023.52
2023-12-15T08:11:16.139Z,1023.57
2023-12-15T08:12:15.789Z,1023.60
2023-12-15T08:13:15.803Z,1023.59
2023-12-15T08:14:15.770Z,1023.64
2023-12-15T08:15:15.840Z,1023.63
2023-12-15T08:16:15.690Z,1023.63
2023-12-15T08:17:15.799Z,1023.72
2023-12-15T08:18:17.074Z,1023.71
2023-12-15T08:19:15.677Z,1023.77
2023-12-15T08:20:15.701Z,1023.80
2023-12-15T08:21:15.656Z,1023.80
2023-12-15T08:22:15.652Z,1023.79
2023-12-15T08:23:15.645Z,1023.80
2023-12-15T08:24:15.577Z,1023.84
2023-12-15T08:25:15.620Z,1023.88
2023-12-15T08:26:15.720Z,1023.91
2023-12-15T08:27:15.676Z,1023.85
2023-12-15T08:28:15.600Z,1023.92
2023-12-15T08:29:15.633Z,1023.94
2023-12-15T08:30:16.355Z,1024.00
2023-12-15T08:31:15.526Z,1024.02
2023-12-15T08:32:15.634Z,1024.02
2023-12-15T08:33:15.556Z,1024.04
2023-12-15T08:34:15.556Z,1023.98
2023-12-15T08:35:15.549Z,1023.98
2023-12-15T08:36:15.466Z,1023.99
2023-12-15T08:37:15.417Z,1024.00
2023-12-15T08:38:15.416Z,1024.05
2023-12-15T08:39:17.873Z,1024.07
2023-12-15T08:40:15.446Z,1024.14
2023-12-15T08:41:15.443Z,1024.20
2023-12-15T08:42:15.354Z,1024.18
2023-12-15T08:43:15.392Z,1024.16
2023-12-15T08:44:24.166Z,1024.17
2023-12-15T08:45:16.310Z,1024.14
2023-12-15T08:46:15.283Z,1024.09
2023-12-15T08:47:15.316Z,1024.11
2023-12-15T08:48:15.342Z,1024.10
2023-12-15T08:49:15.284Z,1024.10
2023-12-15T08:50:15.289Z,1024.15
2023-12-15T08:51:15.291Z,1024.10
2023-12-15T08:52:15.208Z,1024.15
2023-12-15T08:53:15.218Z,1024.14
2023-12-15T08:54:17.561Z,1024.15
2023-12-15T08:55:15.264Z,1024.15
2023-12-15T08:56:15.192Z,1024.11
2023-12-15T08:57:15.252Z,1024.12
2023-12-15T08:58:15.197Z,1024.14
2023-12-15T08:59:15.217Z,1024.14
2023-12-15T09:00:15.199Z,1024.19
2023-12-15T09:01:15.181Z,1024.13
2023-12-15T09:02:15.127Z,1024.20
2023-12-15T09:03:15.123Z,1024.18
2023-12-15T09:04:15.061Z,1024.19
2023-12-15T09:05:30.347Z,1024.19
2023-12-15T09:06:25.892Z,1024.20
2023-12-15T09:07:16.224Z,1024.22
2023-12-15T09:08:15.273Z,1024.35
2023-12-15T09:09:15.137Z,1024.40
2023-12-15T09:10:15.130Z,1024.43
2023-12-15T09:11:15.082Z,1024.49
2023-12-15T09:12:15.028Z,1024.50
2023-12-15T09:13:14.995Z,1024.44
2023-12-15T09:14:15.091Z,1024.45
2023-12-15T09:15:15.013Z,1024.51
2023-12-15T09:16:14.970Z,1024.55
2023-12-15T09:17:14.974Z,1024.59
2023-12-15T09:18:14.960Z,1024.67
2023-12-15T09:19:15.066Z,1024.71
2023-12-15T09:20:14.896Z,1024.66
2023-12-15T09:21:14.960Z,1024.62
2023-12-15T09:22:14.871Z,1024.62
2023-12-15T09:23:14.868Z,1024.64
2023-12-15T09:24:14.813Z,1024.63
2023-12-15T09:25:14.864Z,1024.65
2023-12-15T09:26:14.814Z,1024.68
2023-12-15T09:27:14.788Z,1024.73
2023-12-15T09:28:14.752Z,1024.69
2023-12-15T09:29:14.810Z,1024.71
2023-12-15T09:30:14.829Z,1024.75
2023-12-15T09:31:14.731Z,1024.75
2023-12-15T09:32:14.734Z,1024.81
2023-12-15T09:33:14.936Z,1024.87
2023-12-15T09:34:14.754Z,1024.87
2023-12-15T09:35:15.116Z,1024.91
2023-12-15T09:36:14.781Z,1024.90
2023-12-15T09:37:15.505Z,1024.91
2023-12-15T09:38:14.703Z,1024.90
2023-12-15T09:39:14.641Z,1024.90
2023-12-15T09:40:14.655Z,1024.91
2023-12-15T09:41:14.699Z,1024.94
2023-12-15T09:42:14.639Z,1024.96
2023-12-15T09:43:14.664Z,1024.96
2023-12-15T09:44:14.698Z,1024.99
2023-12-15T09:45:15.372Z,1024.98
2023-12-15T09:46:14.593Z,1025.00
2023-12-15T09:47:14.620Z,1025.04
2023-12-15T09:48:14.559Z,1025.08
2023-12-15T09:49:14.595Z,1025.10
2023-12-15T09:50:14.734Z,1025.17
2023-12-15T09:51:14.459Z,1025.17
2023-12-15T09:52:14.463Z,1025.22
2023-12-15T09:53:14.503Z,1025.22
2023-12-15T09:54:14.655Z,1025.26
2023-12-15T09:55:14.722Z,1025.29
2023-12-15T09:56:14.926Z,1025.29
2023-12-15T09:57:14.427Z,1025.26
2023-12-15T09:58:14.432Z,1025.37
2023-12-15T09:59:14.450Z,1025.38
2023-12-15T10:00:15.053Z,1025.39
2023-12-15T10:01:14.473Z,1025.39
2023-12-15T10:02:14.357Z,1025.36
2023-12-15T10:03:14.410Z,1025.33
2023-12-15T10:04:14.330Z,1025.34
2023-12-15T10:05:14.304Z,1025.41
2023-12-15T10:06:14.462Z,1025.44
2023-12-15T10:07:14.276Z,1025.42
2023-12-15T10:08:14.248Z,1025.44
2023-12-15T10:09:14.600Z,1025.40
2023-12-15T10:10:14.259Z,1025.39
2023-12-15T10:11:14.278Z,1025.44
2023-12-15T10:12:14.186Z,1025.44
2023-12-15T10:13:14.189Z,1025.51
2023-12-15T10:14:14.294Z,1025.55
2023-12-15T10:15:14.288Z,1025.54
2023-12-15T10:16:14.182Z,1025.53
2023-12-15T10:17:14.266Z,1025.55
2023-12-15T10:18:14.411Z,1025.55
2023-12-15T10:19:14.201Z,1025.50
2023-12-15T10:20:14.338Z,1025.54
2023-12-15T10:21:14.118Z,1025.52
2023-12-15T10:22:14.141Z,1025.59
2023-12-15T10:23:14.078Z,1025.52
2023-12-15T10:24:14.137Z,1025.57
2023-12-15T10:25:14.046Z,1025.52
2023-12-15T10:26:14.075Z,1025.53
2023-12-15T10:27:14.070Z,1025.48
2023-12-15T10:28:14.071Z,1025.46
2023-12-15T10:29:14.043Z,1025.50
2023-12-15T10:30:14.031Z,1025.51
2023-12-15T10:31:14.001Z,1025.55
2023-12-15T10:32:13.993Z,1025.51
2023-12-15T10:33:14.125Z,1025.52
2023-12-15T10:34:13.977Z,1025.55
2023-12-15T10:35:14.315Z,1025.54
2023-12-15T10:36:13.929Z,1025.55
2023-12-15T10:37:13.919Z,1025.59
2023-12-15T10:38:13.852Z,1025.57
2023-12-15T10:39:13.811Z,1025.60
2023-12-15T10:40:13.892Z,1025.60
2023-12-15T10:41:13.932Z,1025.62
2023-12-15T10:42:13.782Z,1025.58
2023-12-15T10:43:13.787Z,1025.57
2023-12-15T10:44:13.884Z,1025.56
2023-12-15T10:45:14.053Z,1025.57
2023-12-15T10:46:13.790Z,1025.54
2023-12-15T10:47:13.775Z,1025.55
2023-12-15T10:48:14.198Z,1025.53
2023-12-15T10:49:13.870Z,1025.54
2023-12-15T10:50:13.707Z,1025.54
2023-12-15T10:51:13.714Z,1025.54
2023-12-15T10:52:13.666Z,1025.51
2023-12-15T10:53:13.682Z,1025.51
2023-12-15T10:54:13.697Z,1025.54
2023-12-15T10:55:13.643Z,1025.53
2023-12-15T10:56:13.685Z,1025.57
2023-12-15T10:57:13.578Z,1025.57
2023-12-15T10:58:13.614Z,1025.55
2023-12-15T10:59:14.133Z,1025.63
2023-12-15T11:00:13.559Z,1025.63
2023-12-15T11:01:13.605Z,1025.62
2023-12-15T11:02:13.655Z,1025.64
2023-12-15T11:03:13.627Z,1025.59
2023-12-15T11:04:13.504Z,1025.60
2023-12-15T11:05:14.357Z,1025.57
2023-12-15T11:08:30.356Z,1025.60
2023-12-15T11:08:55.022Z,1025.61
2023-12-15T11:09:54.976Z,1025.59
2023-12-15T11:10:55.096Z,1025.57
2023-12-15T11:11:54.944Z,1025.59
2023-12-15T11:12:54.934Z,1025.59
2023-12-15T11:13:54.950Z,1025.54
2023-12-15T11:14:54.920Z,1025.55
2023-12-15T11:15:54.855Z,1025.59
2023-12-15T11:16:54.892Z,1025.63
2023-12-15T11:17:55.277Z,1025.64
2023-12-15T11:18:55.022Z,1025.62
2023-12-15T11:19:54.855Z,1025.61
2023-12-15T11:20:54.855Z,1025.60
2023-12-15T11:21:54.823Z,1025.59
2023-12-15T11:22:54.807Z,1025.65
2023-12-15T11:23:54.846Z,1025.62
2023-12-15T11:24:54.807Z,1025.64
2023-12-15T11:25:54.772Z,1025.60
2023-12-15T11:26:54.741Z,1025.58
2023-12-15T11:27:54.772Z,1025.58
2023-12-15T11:28:55.127Z,1025.60
2023-12-15T11:29:55.179Z,1025.61
2023-12-15T11:30:55.021Z,1025.58
2023-12-15T11:31:54.777Z,1025.53
2023-12-15T11:32:55.079Z,1025.55
2023-12-15T11:33:54.925Z,1025.60
2023-12-15T11:34:54.696Z,1025.59
2023-12-15T11:35:54.778Z,1025.60
2023-12-15T11:36:54.733Z,1025.59
2023-12-15T11:37:54.846Z,1025.58
2023-12-15T11:38:54.611Z,1025.67
2023-12-15T11:39:54.763Z,1025.64
2023-12-15T11:40:54.764Z,1025.69
2023-12-15T11:41:54.571Z,1025.68
2023-12-15T11:42:54.581Z,1025.68
2023-12-15T11:43:54.580Z,1025.61
2023-12-15T11:44:54.546Z,1025.68
2023-12-15T11:45:54.475Z,1025.72
2023-12-15T11:46:54.510Z,1025.71
2023-12-15T11:47:54.567Z,1025.64
2023-12-15T11:48:54.544Z,1025.72
2023-12-15T11:49:54.562Z,1025.66
2023-12-15T11:50:54.422Z,1025.68
2023-12-15T11:51:54.474Z,1025.62
2023-12-15T11:52:54.426Z,1025.71
2023-12-15T11:53:54.389Z,1025.68
2023-12-15T11:54:54.439Z,1025.69
2023-12-15T11:55:54.400Z,1025.69
2023-12-15T11:56:54.350Z,1025.69
2023-12-15T11:57:55.550Z,1025.66
2023-12-15T11:58:54.319Z,1025.65
2023-12-15T11:59:54.386Z,1025.69
2023-12-15T12:00:54.315Z,1025.66
2023-12-15T12:01:54.308Z,1025.62
2023-12-15T12:02:54.280Z,1025.65
2023-12-15T12:03:54.261Z,1025.61
2023-12-15T12:04:54.282Z,1025.68
2023-12-15T12:05:54.324Z,1025.64
2023-12-15T12:06:54.305Z,1025.68
2023-12-15T12:07:54.229Z,1025.71
2023-12-15T12:08:54.186Z,1025.68
2023-12-15T12:09:54.169Z,1025.80
2023-12-15T12:10:54.196Z,1025.82
2023-12-15T12:11:54.151Z,1025.80
2023-12-15T12:12:54.134Z,1025.76
2023-12-15T12:13:54.975Z,1025.79
2023-12-15T12:14:54.144Z,1025.82
2023-12-15T12:15:54.260Z,1025.76
2023-12-15T12:16:54.134Z,1025.80
2023-12-15T12:17:54.249Z,1025.77
2023-12-15T12:18:54.136Z,1025.76